Time;durP1;ratioP1;P1;durP2;ratioP2;P2;SDS_P1;SDS_P2;PMS_P1;PMS_P2;Temp;Humidity;BMP_temperature;BMP_pressure;BME280_temperature;BME280_humidity;BME280_pressure;Samples;Min_cycle;Max_cycle;Signal;HPM_P1;HPM_P2
2023/12/26 00:01:51;;;;;;;6.03;1.70;;;8.20;99.90;;;;;;5029279;28;20186;-68
2023/12/26 00:04:18;;;;;;;14.77;2.10;;;8.20;99.90;;;;;;5029261;28;20259;-67
2023/12/26 00:06:45;;;;;;;14.47;2.63;;;8.20;99.90;;;;;;5027880;28;20273;-68
2023/12/26 00:09:14;;;;;;;5.23;1.40;;;8.20;99.90;;;;;;5029672;28;20199;-68
2023/12/26 00:11:44;;;;;;;4.87;1.70;;;8.20;99.90;;;;;;5029499;28;20291;-68
2023/12/26 00:14:12;;;;;;;2.53;1.30;;;8.20;99.90;;;;;;5029272;28;20264;-68
2023/12/26 00:16:41;;;;;;;6.53;1.93;;;8.20;99.90;;;;;;5028670;28;20245;-68
2023/12/26 00:19:08;;;;;;;9.23;1.97;;;8.20;99.90;;;;;;5028829;28;20285;-68
2023/12/26 00:21:35;;;;;;;6.13;1.63;;;8.20;99.90;;;;;;5029571;28;20221;-67
2023/12/26 00:24:02;;;;;;;8.30;1.63;;;8.20;99.90;;;;;;5029407;28;20217;-68
2023/12/26 00:26:33;;;;;;;4.23;1.37;;;8.20;99.90;;;;;;5028327;28;20227;-69
2023/12/26 00:29:00;;;;;;;5.57;1.33;;;8.20;99.90;;;;;;5009729;28;20390;-68
2023/12/26 00:31:29;;;;;;;2.87;1.50;;;8.20;99.90;;;;;;5011382;28;20201;-68
2023/12/26 00:33:57;;;;;;;3.60;1.20;;;8.20;99.90;;;;;;5028927;28;20311;-68
2023/12/26 00:36:24;;;;;;;4.00;1.50;;;8.20;99.90;;;;;;5029803;28;20198;-68
2023/12/26 00:38:51;;;;;;;5.93;1.67;;;8.20;99.90;;;;;;5029426;28;20194;-68
2023/12/26 00:41:18;;;;;;;5.70;1.67;;;8.20;99.90;;;;;;5028837;28;20252;-68
2023/12/26 00:43:46;;;;;;;6.87;1.77;;;8.20;99.90;;;;;;5028938;28;20218;-67
2023/12/26 00:46:14;;;;;;;5.13;1.70;;;8.30;99.90;;;;;;5010730;28;20203;-67
2023/12/26 00:48:41;;;;;;;9.47;2.30;;;8.30;99.90;;;;;;5028629;28;20298;-67
2023/12/26 00:51:08;;;;;;;4.90;1.40;;;8.30;99.90;;;;;;5029147;28;20289;-67
2023/12/26 00:53:35;;;;;;;9.13;1.50;;;8.40;99.90;;;;;;5026271;28;20194;-67
2023/12/26 00:56:02;;;;;;;4.00;1.33;;;8.40;99.90;;;;;;5008283;28;20243;-66
2023/12/26 00:58:29;;;;;;;5.17;1.33;;;8.40;99.90;;;;;;5025606;28;20196;-67
2023/12/26 01:00:58;;;;;;;3.63;1.10;;;8.50;99.90;;;;;;5007339;28;20664;-67
2023/12/26 01:03:25;;;;;;;3.07;1.00;;;8.50;99.90;;;;;;5018492;28;20239;-68
2023/12/26 01:05:52;;;;;;;9.57;2.00;;;8.50;99.90;;;;;;5029084;28;20252;-68
2023/12/26 01:08:19;;;;;;;1.47;0.90;;;8.50;99.90;;;;;;5029238;28;20199;-68
2023/12/26 01:10:47;;;;;;;6.93;1.20;;;8.50;99.90;;;;;;5028569;28;20199;-68
2023/12/26 01:13:15;;;;;;;2.77;1.10;;;8.50;99.90;;;;;;5028394;28;20194;-68
2023/12/26 01:15:42;;;;;;;4.10;1.30;;;8.50;99.90;;;;;;5010589;28;20254;-67
2023/12/26 01:18:10;;;;;;;4.27;1.30;;;8.50;99.90;;;;;;5028781;28;20248;-68
2023/12/26 01:20:37;;;;;;;5.17;1.57;;;8.50;99.90;;;;;;5010780;28;20220;-68
2023/12/26 01:23:05;;;;;;;3.87;1.63;;;8.50;99.90;;;;;;5028152;28;20218;-67
2023/12/26 01:25:32;;;;;;;4.87;1.67;;;8.60;99.90;;;;;;5028574;28;20207;-67
2023/12/26 01:27:58;;;;;;;5.87;1.60;;;8.60;99.90;;;;;;5010776;28;20287;-67
2023/12/26 01:30:27;;;;;;;5.57;1.63;;;8.50;99.90;;;;;;5013752;28;20229;-67
2023/12/26 01:32:54;;;;;;;7.73;1.83;;;8.50;99.90;;;;;;5031955;28;20263;-67
2023/12/26 01:35:22;;;;;;;7.60;1.73;;;8.50;99.90;;;;;;5014715;28;20213;-67
2023/12/26 01:37:49;;;;;;;3.83;1.13;;;8.50;99.90;;;;;;5032747;28;20191;-66
2023/12/26 01:40:17;;;;;;;5.83;1.80;;;8.40;99.90;;;;;;5032508;28;20203;-67
2023/12/26 01:42:46;;;;;;;5.90;1.50;;;8.40;99.90;;;;;;5013613;28;20224;-67
2023/12/26 01:45:13;;;;;;;6.03;1.53;;;8.40;99.90;;;;;;5014899;28;20315;-67
2023/12/26 01:47:40;;;;;;;5.33;1.80;;;8.40;99.90;;;;;;5032099;28;20220;-68
2023/12/26 01:50:09;;;;;;;5.87;1.73;;;8.20;99.90;;;;;;5032022;28;20252;-68
2023/12/26 01:52:39;;;;;;;8.50;1.90;;;8.30;99.90;;;;;;5013943;28;20639;-68
2023/12/26 01:55:09;;;;;;;6.30;1.67;;;8.30;99.90;;;;;;5013846;28;20701;-68
2023/12/26 01:57:39;;;;;;;4.70;1.23;;;8.30;99.90;;;;;;5031527;28;20198;-68
2023/12/26 02:00:08;;;;;;;5.00;1.50;;;8.30;99.90;;;;;;5012654;28;20195;-67
2023/12/26 02:02:43;;;;;;;2.20;1.50;;;8.30;99.90;;;;;;5029809;28;20217;-67
2023/12/26 02:05:12;;;;;;;2.93;1.30;;;8.30;99.90;;;;;;5028961;28;20278;-67
2023/12/26 02:07:40;;;;;;;4.03;1.30;;;8.30;99.90;;;;;;5032441;28;20241;-67
2023/12/26 02:10:08;;;;;;;2.93;1.13;;;8.20;99.90;;;;;;5032033;28;20195;-68
2023/12/26 02:12:35;;;;;;;6.30;1.43;;;8.20;99.90;;;;;;5032207;28;20274;-67
2023/12/26 02:15:03;;;;;;;2.87;1.40;;;8.20;99.90;;;;;;5014138;28;20648;-67
2023/12/26 02:17:31;;;;;;;6.43;1.60;;;8.20;99.90;;;;;;5031843;28;20215;-68
2023/12/26 02:19:58;;;;;;;3.50;1.47;;;8.30;99.90;;;;;;5032014;28;20283;-67
2023/12/26 02:22:25;;;;;;;5.17;1.60;;;8.30;99.90;;;;;;5032159;28;20216;-68
2023/12/26 02:24:54;;;;;;;7.30;1.80;;;8.20;99.90;;;;;;5031521;28;20272;-68
2023/12/26 02:27:25;;;;;;;4.93;1.97;;;8.20;99.90;;;;;;5029457;28;20187;-68
2023/12/26 02:29:55;;;;;;;7.37;1.90;;;8.20;99.90;;;;;;5015850;28;20198;-68
2023/12/26 02:32:25;;;;;;;5.37;1.50;;;8.20;99.90;;;;;;5031302;28;20572;-68
2023/12/26 02:34:55;;;;;;;5.30;1.83;;;8.20;99.90;;;;;;5013625;28;20649;-68
2023/12/26 02:37:23;;;;;;;6.33;1.50;;;8.20;99.90;;;;;;5032175;28;20620;-68
2023/12/26 02:39:50;;;;;;;5.13;1.20;;;8.10;99.90;;;;;;5031345;28;20200;-68
2023/12/26 02:42:20;;;;;;;4.33;1.37;;;8.10;99.90;;;;;;5013301;28;20240;-68
2023/12/26 02:44:47;;;;;;;3.43;1.00;;;8.10;99.90;;;;;;5013746;28;20623;-67
2023/12/26 02:47:15;;;;;;;6.93;1.50;;;8.10;99.90;;;;;;5031179;28;20201;-68
2023/12/26 02:49:42;;;;;;;5.03;1.40;;;8.00;99.90;;;;;;5030937;28;20282;-67
2023/12/26 02:52:09;;;;;;;4.10;1.50;;;8.00;99.90;;;;;;5013523;28;20683;-67
2023/12/26 02:54:36;;;;;;;4.53;1.20;;;8.00;99.90;;;;;;5030912;28;20816;-67
2023/12/26 02:57:03;;;;;;;3.30;1.37;;;8.00;99.90;;;;;;5030978;28;20195;-67
2023/12/26 02:59:32;;;;;;;8.27;1.70;;;8.00;99.90;;;;;;5012191;28;20228;-67
2023/12/26 03:01:59;;;;;;;3.20;1.53;;;8.00;99.90;;;;;;5009526;28;20309;-66
2023/12/26 03:04:26;;;;;;;6.23;1.80;;;8.00;99.90;;;;;;5028611;28;20643;-67
2023/12/26 03:06:53;;;;;;;2.67;1.33;;;8.00;99.90;;;;;;5029230;28;20290;-68
2023/12/26 03:09:20;;;;;;;5.70;1.73;;;8.00;99.90;;;;;;5031479;28;20202;-68
2023/12/26 03:11:47;;;;;;;9.67;2.20;;;8.00;99.90;;;;;;5012843;28;20199;-67
2023/12/26 03:14:15;;;;;;;4.03;1.43;;;7.90;99.90;;;;;;5012804;28;20202;-67
2023/12/26 03:16:44;;;;;;;2.87;1.50;;;7.90;99.90;;;;;;5012926;28;20223;-68
2023/12/26 03:19:11;;;;;;;3.83;2.07;;;7.90;99.90;;;;;;5030351;28;20738;-67
2023/12/26 03:21:38;;;;;;;3.03;1.40;;;7.90;99.90;;;;;;5030583;28;20253;-67
2023/12/26 03:24:06;;;;;;;4.07;1.50;;;7.90;99.90;;;;;;5031095;28;20645;-67
2023/12/26 03:26:33;;;;;;;7.83;1.57;;;7.90;99.90;;;;;;5012550;28;20216;-67
2023/12/26 03:29:00;;;;;;;7.33;2.37;;;7.90;99.90;;;;;;5030791;28;20233;-67
2023/12/26 03:31:27;;;;;;;7.30;1.87;;;7.80;99.90;;;;;;5012500;28;20609;-67
2023/12/26 03:33:56;;;;;;;4.47;1.87;;;7.90;99.90;;;;;;5012684;28;20201;-67
2023/12/26 03:36:23;;;;;;;5.87;2.10;;;7.80;99.90;;;;;;5012771;28;20190;-67
2023/12/26 03:38:50;;;;;;;14.27;2.37;;;7.80;99.90;;;;;;5030644;28;20226;-67
2023/12/26 03:41:18;;;;;;;11.63;3.03;;;7.90;99.90;;;;;;5012141;28;20203;-67
2023/12/26 03:43:45;;;;;;;13.40;2.53;;;7.80;99.90;;;;;;5012538;28;20222;-67
2023/12/26 03:46:12;;;;;;;8.50;2.50;;;7.80;99.90;;;;;;5011956;28;20753;-68
2023/12/26 03:48:39;;;;;;;16.63;3.70;;;7.70;99.90;;;;;;5030230;28;20268;-68
2023/12/26 03:51:07;;;;;;;13.73;3.20;;;7.70;99.90;;;;;;5029613;28;20209;-68
2023/12/26 03:53:34;;;;;;;6.43;2.20;;;7.60;99.90;;;;;;5012080;28;20190;-68
2023/12/26 03:56:02;;;;;;;12.50;2.80;;;7.60;99.90;;;;;;5012384;28;20236;-68
2023/12/26 03:58:29;;;;;;;8.33;2.63;;;7.60;99.90;;;;;;5011341;28;20278;-67
2023/12/26 04:00:57;;;;;;;12.57;2.50;;;7.60;99.90;;;;;;5011607;28;20588;-67
2023/12/26 04:03:24;;;;;;;6.17;2.13;;;7.60;99.90;;;;;;5027695;28;20236;-68
2023/12/26 04:05:51;;;;;;;6.30;2.30;;;7.60;99.90;;;;;;5027697;28;20218;-68
2023/12/26 04:08:20;;;;;;;3.83;1.57;;;7.60;99.90;;;;;;5011937;28;20329;-68
2023/12/26 04:10:48;;;;;;;4.50;1.60;;;7.60;99.90;;;;;;5011838;28;20198;-68
2023/12/26 04:13:15;;;;;;;5.10;1.73;;;7.60;99.90;;;;;;5029830;28;20205;-68
2023/12/26 04:15:44;;;;;;;9.40;2.27;;;7.70;99.90;;;;;;5012699;28;20231;-68
2023/12/26 04:18:11;;;;;;;7.50;1.80;;;7.70;99.90;;;;;;5011831;28;20210;-68
2023/12/26 04:20:38;;;;;;;5.27;2.00;;;7.70;99.90;;;;;;5030316;28;20556;-68
2023/12/26 04:23:05;;;;;;;5.33;1.37;;;7.70;99.90;;;;;;5030449;28;20260;-68
2023/12/26 04:25:34;;;;;;;6.77;1.63;;;7.70;99.90;;;;;;5011871;28;20207;-68
2023/12/26 04:28:00;;;;;;;4.13;1.73;;;7.70;99.90;;;;;;5028959;28;20198;-68
2023/12/26 04:30:28;;;;;;;8.80;1.87;;;7.70;99.90;;;;;;5010538;28;20266;-68
2023/12/26 04:32:55;;;;;;;5.80;1.50;;;7.60;99.90;;;;;;5029193;28;20248;-68
2023/12/26 04:35:22;;;;;;;5.93;1.70;;;7.60;99.90;;;;;;5011340;28;20215;-68
2023/12/26 04:37:49;;;;;;;7.30;2.13;;;7.60;99.90;;;;;;5011619;28;20208;-68
2023/12/26 04:40:16;;;;;;;12.97;2.60;;;7.70;99.90;;;;;;5030098;28;20234;-68
2023/12/26 04:42:45;;;;;;;8.87;2.50;;;7.60;99.90;;;;;;5011378;28;20599;-67
2023/12/26 04:45:14;;;;;;;8.10;2.70;;;7.60;99.90;;;;;;5011821;28;20623;-68
2023/12/26 04:47:41;;;;;;;10.57;2.70;;;7.60;99.90;;;;;;5028952;28;20190;-68
2023/12/26 04:50:08;;;;;;;11.07;2.40;;;7.60;99.90;;;;;;5029495;28;20249;-68
2023/12/26 04:52:35;;;;;;;20.77;3.70;;;7.60;99.90;;;;;;5029245;28;20204;-68
2023/12/26 04:55:03;;;;;;;7.33;2.50;;;7.50;99.90;;;;;;5011228;28;20571;-68
2023/12/26 04:57:30;;;;;;;11.60;3.30;;;7.50;99.90;;;;;;5011842;28;20258;-68
2023/12/26 04:59:58;;;;;;;13.13;3.27;;;7.50;99.90;;;;;;5027972;28;20201;-68
2023/12/26 05:02:26;;;;;;;12.80;3.40;;;7.40;99.90;;;;;;5008375;28;20667;-68
2023/12/26 05:04:53;;;;;;;13.23;3.53;;;7.40;99.90;;;;;;5027938;28;20266;-68
2023/12/26 05:07:21;;;;;;;12.20;3.70;;;7.40;99.90;;;;;;5030917;28;20264;-68
2023/12/26 05:09:48;;;;;;;12.97;3.73;;;7.30;99.90;;;;;;5009245;28;20199;-68
2023/12/26 05:12:15;;;;;;;12.30;3.10;;;7.30;99.90;;;;;;5012601;28;20328;-68
2023/12/26 05:14:43;;;;;;;10.93;2.97;;;7.30;99.90;;;;;;5028967;28;20195;-68
2023/12/26 05:17:13;;;;;;;10.10;2.60;;;7.20;99.90;;;;;;5006459;28;20677;-68
2023/12/26 05:19:40;;;;;;;9.30;2.63;;;7.20;99.90;;;;;;5014107;28;20293;-68
2023/12/26 05:22:07;;;;;;;10.20;2.83;;;7.20;99.90;;;;;;5025308;28;20252;-68
2023/12/26 05:24:35;;;;;;;4.23;1.97;;;7.30;99.90;;;;;;5014861;28;20333;-68
2023/12/26 05:27:03;;;;;;;9.50;2.50;;;7.30;99.90;;;;;;5015434;28;20699;-68
2023/12/26 05:29:30;;;;;;;6.27;2.67;;;7.30;99.90;;;;;;5033055;28;20293;-68
2023/12/26 05:31:57;;;;;;;10.73;3.27;;;7.30;99.90;;;;;;5033080;28;20218;-68
2023/12/26 05:34:25;;;;;;;5.67;2.40;;;7.30;99.90;;;;;;5031459;28;20252;-68
2023/12/26 05:36:53;;;;;;;12.63;2.80;;;7.30;99.90;;;;;;5015136;28;20199;-67
2023/12/26 05:39:20;;;;;;;6.70;1.87;;;7.30;99.90;;;;;;5014413;28;20199;-68
2023/12/26 05:41:47;;;;;;;3.97;1.53;;;7.30;99.90;;;;;;5033040;28;20210;-67
2023/12/26 05:44:14;;;;;;;9.97;2.30;;;7.30;99.90;;;;;;5014228;28;20774;-68
2023/12/26 05:46:42;;;;;;;13.67;2.70;;;7.30;99.90;;;;;;5025639;28;20211;-68
2023/12/26 05:49:10;;;;;;;9.33;2.90;;;7.30;99.90;;;;;;5013819;28;20222;-68
2023/12/26 05:51:38;;;;;;;13.00;4.07;;;7.30;99.90;;;;;;5015199;28;20199;-68
2023/12/26 05:54:05;;;;;;;9.87;3.40;;;7.30;99.90;;;;;;5031182;28;20245;-68
2023/12/26 05:56:32;;;;;;;13.07;3.70;;;7.30;99.90;;;;;;5031919;28;20245;-68
2023/12/26 05:58:59;;;;;;;22.77;4.43;;;7.30;99.90;;;;;;5014186;28;20198;-67
2023/12/26 06:01:26;;;;;;;11.53;3.40;;;7.20;99.90;;;;;;5014565;28;20213;-67
2023/12/26 06:03:53;;;;;;;9.87;3.90;;;7.10;99.90;;;;;;5031443;28;20300;-67
2023/12/26 06:06:21;;;;;;;13.67;4.03;;;7.10;99.90;;;;;;5014064;28;20234;-67
2023/12/26 06:08:49;;;;;;;16.57;3.60;;;7.10;99.90;;;;;;5014789;28;20612;-67
2023/12/26 06:11:17;;;;;;;14.67;3.57;;;7.00;99.90;;;;;;5014231;28;20206;-67
2023/12/26 06:13:44;;;;;;;9.10;2.90;;;6.90;99.90;;;;;;5032032;28;20195;-67
2023/12/26 06:16:11;;;;;;;10.30;3.27;;;6.90;99.90;;;;;;5012953;28;20232;-68
2023/12/26 06:18:39;;;;;;;10.80;3.00;;;6.90;99.90;;;;;;5013535;28;20591;-67
2023/12/26 06:21:06;;;;;;;12.50;3.53;;;6.90;99.90;;;;;;5013651;28;20256;-67
2023/12/26 06:23:33;;;;;;;13.30;3.50;;;6.80;99.90;;;;;;5014240;28;20293;-67
2023/12/26 06:26:02;;;;;;;17.43;3.70;;;6.70;99.90;;;;;;5013364;28;20616;-67
2023/12/26 06:28:29;;;;;;;8.63;3.23;;;6.80;99.90;;;;;;5013999;28;20272;-68
2023/12/26 06:30:56;;;;;;;14.73;3.30;;;6.90;99.90;;;;;;5031521;28;20587;-68
2023/12/26 06:33:23;;;;;;;14.60;3.40;;;6.70;99.90;;;;;;5031789;28;20202;-67
2023/12/26 06:35:50;;;;;;;12.27;3.33;;;6.70;99.90;;;;;;5013764;28;20202;-67
2023/12/26 06:38:18;;;;;;;8.60;3.57;;;6.80;99.90;;;;;;5013965;28;20305;-68
2023/12/26 06:40:45;;;;;;;7.13;2.50;;;6.80;99.90;;;;;;5031574;28;20202;-67
2023/12/26 06:43:14;;;;;;;9.07;3.00;;;6.80;99.90;;;;;;5013508;28;20692;-68
2023/12/26 06:45:41;;;;;;;13.00;4.07;;;6.90;99.90;;;;;;5014102;28;20659;-67
2023/12/26 06:48:09;;;;;;;14.47;4.70;;;6.90;99.90;;;;;;5012660;28;20751;-68
2023/12/26 06:50:39;;;;;;;12.87;3.80;;;6.80;99.90;;;;;;5013205;28;20203;-68
2023/12/26 06:53:07;;;;;;;14.07;5.20;;;6.80;99.90;;;;;;5013337;28;20202;-68
2023/12/26 06:55:34;;;;;;;24.00;10.77;;;6.70;99.90;;;;;;5018383;28;20617;-68
2023/12/26 06:58:01;;;;;;;22.30;10.17;;;6.80;99.90;;;;;;5028829;28;20305;-67
2023/12/26 07:00:29;;;;;;;15.47;6.77;;;6.80;99.90;;;;;;5012534;28;20260;-67
2023/12/26 07:02:56;;;;;;;15.30;4.60;;;6.80;99.90;;;;;;5008801;28;20206;-68
2023/12/26 07:05:24;;;;;;;10.60;3.63;;;6.70;99.90;;;;;;5007399;28;20675;-68
2023/12/26 07:07:51;;;;;;;10.30;2.90;;;6.80;99.90;;;;;;4989829;28;20318;-68
2023/12/26 07:10:18;;;;;;;10.07;2.90;;;6.80;99.90;;;;;;5008324;28;20223;-67
2023/12/26 07:12:45;;;;;;;6.77;2.97;;;6.80;99.90;;;;;;5010966;28;20210;-68
2023/12/26 07:15:12;;;;;;;5.40;2.87;;;6.80;99.90;;;;;;5012025;28;20679;-67
2023/12/26 07:17:41;;;;;;;12.30;3.43;;;6.80;99.90;;;;;;5010691;28;20245;-68
2023/12/26 07:20:09;;;;;;;9.43;3.30;;;6.80;99.90;;;;;;5011260;28;20226;-67
2023/12/26 07:22:36;;;;;;;10.87;3.63;;;6.80;99.90;;;;;;4993402;28;20274;-68
2023/12/26 07:25:03;;;;;;;9.73;3.47;;;6.90;99.90;;;;;;5011063;28;20261;-68
2023/12/26 07:27:30;;;;;;;12.50;3.73;;;6.90;99.90;;;;;;5011144;28;20294;-68
2023/12/26 07:29:58;;;;;;;8.73;3.40;;;6.90;99.90;;;;;;5011532;28;20223;-68
2023/12/26 07:32:25;;;;;;;9.53;3.67;;;6.90;99.90;;;;;;5010888;28;20211;-68
2023/12/26 07:34:52;;;;;;;12.97;3.70;;;6.90;99.90;;;;;;5011143;28;20195;-68
2023/12/26 07:37:19;;;;;;;5.30;3.03;;;6.90;99.90;;;;;;5011123;28;20199;-68
2023/12/26 07:39:46;;;;;;;8.40;3.03;;;6.90;99.90;;;;;;5011078;28;20282;-68
2023/12/26 07:42:13;;;;;;;9.93;3.60;;;6.90;99.90;;;;;;5011161;28;20195;-68
2023/12/26 07:44:40;;;;;;;5.10;2.97;;;6.90;99.90;;;;;;5011041;28;20771;-68
2023/12/26 07:47:07;;;;;;;4.90;3.10;;;6.90;99.90;;;;;;5005602;28;20643;-68
2023/12/26 07:49:34;;;;;;;7.60;3.03;;;7.00;99.90;;;;;;5010126;28;20226;-68
2023/12/26 07:52:03;;;;;;;5.67;3.00;;;7.00;99.90;;;;;;5009401;28;20241;-68
2023/12/26 07:54:30;;;;;;;5.83;2.60;;;7.00;99.90;;;;;;4988809;28;20633;-67
2023/12/26 07:56:57;;;;;;;7.43;2.67;;;7.10;99.90;;;;;;5008506;28;20740;-68
2023/12/26 07:59:24;;;;;;;10.27;3.73;;;7.10;99.90;;;;;;5010332;28;20219;-67
2023/12/26 08:01:51;;;;;;;6.43;3.60;;;7.10;99.90;;;;;;5010528;28;20257;-67
2023/12/26 08:04:18;;;;;;;6.67;3.20;;;7.10;99.90;;;;;;5008028;28;20223;-68
2023/12/26 08:06:45;;;;;;;4.13;3.13;;;7.20;99.90;;;;;;4984877;28;20203;-68
2023/12/26 08:09:13;;;;;;;5.93;2.83;;;7.20;99.90;;;;;;5010296;28;20443;-68
2023/12/26 08:11:40;;;;;;;7.37;2.67;;;7.20;99.90;;;;;;5010774;28;20195;-68
2023/12/26 08:14:07;;;;;;;2.80;1.80;;;7.20;99.90;;;;;;5010410;28;20195;-68
2023/12/26 08:16:34;;;;;;;5.03;2.67;;;7.30;99.90;;;;;;4992136;28;20217;-68
2023/12/26 08:19:02;;;;;;;3.17;2.47;;;7.30;99.90;;;;;;4991697;28;20605;-68
2023/12/26 08:21:29;;;;;;;3.50;2.40;;;7.30;99.90;;;;;;5010319;28;20274;-68
2023/12/26 08:23:56;;;;;;;4.50;2.30;;;7.30;99.90;;;;;;5010561;28;20280;-68
2023/12/26 08:26:32;;;;;;;3.80;2.40;;;7.40;99.90;;;;;;5009635;28;20336;-68
2023/12/26 08:28:59;;;;;;;5.63;2.70;;;7.40;99.90;;;;;;5009907;28;20660;-68
2023/12/26 08:31:26;;;;;;;2.30;2.10;;;7.40;99.90;;;;;;5009855;28;20199;-68
2023/12/26 08:33:53;;;;;;;2.53;2.00;;;7.50;99.90;;;;;;5008528;28;20249;-68
2023/12/26 08:36:20;;;;;;;6.37;2.93;;;7.50;99.90;;;;;;5009847;28;20613;-68
2023/12/26 08:38:47;;;;;;;4.43;2.23;;;7.60;99.90;;;;;;5009784;28;20298;-68
2023/12/26 08:41:14;;;;;;;4.43;2.60;;;7.60;99.90;;;;;;5009866;28;20195;-68
2023/12/26 08:43:42;;;;;;;3.10;2.00;;;7.60;99.90;;;;;;5009563;28;20225;-68
2023/12/26 08:46:09;;;;;;;3.13;1.97;;;7.60;99.90;;;;;;5009730;28;20293;-68
2023/12/26 08:48:36;;;;;;;6.40;2.83;;;7.70;99.90;;;;;;5009537;28;20264;-68
2023/12/26 08:51:03;;;;;;;3.80;2.30;;;7.80;99.90;;;;;;5009953;28;20722;-68
2023/12/26 08:53:31;;;;;;;4.20;2.73;;;7.80;99.90;;;;;;5009564;28;20206;-68
2023/12/26 08:55:58;;;;;;;4.67;2.47;;;7.90;99.90;;;;;;5009291;28;20202;-68
2023/12/26 08:58:29;;;;;;;6.13;3.20;;;8.00;99.90;;;;;;5009551;28;20253;-68
2023/12/26 09:00:57;;;;;;;5.37;2.83;;;8.10;99.90;;;;;;5008939;28;20250;-66
2023/12/26 09:03:24;;;;;;;3.17;2.30;;;8.20;99.90;;;;;;5009719;28;20305;-66
2023/12/26 09:05:51;;;;;;;2.00;1.80;;;8.30;99.90;;;;;;4990011;28;20243;-67
2023/12/26 09:08:19;;;;;;;2.53;1.50;;;8.40;99.90;;;;;;5009539;28;20208;-67
2023/12/26 09:10:45;;;;;;;1.40;1.30;;;8.50;99.90;;;;;;5009489;28;20230;-67
2023/12/26 09:13:12;;;;;;;1.37;1.13;;;8.60;99.90;;;;;;5009606;28;20825;-68
2023/12/26 09:15:40;;;;;;;1.27;1.10;;;8.70;99.90;;;;;;4986092;28;20273;-67
2023/12/26 09:18:08;;;;;;;1.10;1.10;;;8.70;99.90;;;;;;5013804;28;20196;-68
2023/12/26 09:20:36;;;;;;;1.13;1.10;;;8.80;99.90;;;;;;5010677;28;20199;-67
2023/12/26 09:23:03;;;;;;;1.30;1.20;;;8.80;99.90;;;;;;5015898;28;20214;-68
2023/12/26 09:25:30;;;;;;;1.93;1.30;;;8.90;99.90;;;;;;5007288;28;20257;-68
2023/12/26 09:27:57;;;;;;;1.10;1.00;;;8.90;99.90;;;;;;4989706;28;20257;-68
2023/12/26 09:30:24;;;;;;;1.40;1.27;;;8.90;99.90;;;;;;5007607;28;20235;-68
2023/12/26 09:32:51;;;;;;;1.90;1.40;;;9.00;99.90;;;;;;5004090;28;20264;-68
2023/12/26 09:35:20;;;;;;;1.20;1.10;;;9.00;99.90;;;;;;5007665;28;20225;-68
2023/12/26 09:37:46;;;;;;;1.93;1.60;;;9.00;99.90;;;;;;5008472;28;20255;-68
2023/12/26 09:40:14;;;;;;;1.27;1.10;;;9.10;99.90;;;;;;5009306;28;20688;-67
2023/12/26 09:42:41;;;;;;;3.23;1.37;;;9.10;99.90;;;;;;5009370;28;20211;-68
2023/12/26 09:45:11;;;;;;;3.43;1.40;;;9.10;99.90;;;;;;5011026;28;20203;-68
2023/12/26 09:47:41;;;;;;;1.83;1.50;;;9.10;99.90;;;;;;4996643;28;20229;-68
2023/12/26 09:50:09;;;;;;;1.77;1.63;;;9.10;99.90;;;;;;5011496;28;20562;-67
2023/12/26 09:52:39;;;;;;;2.50;1.90;;;9.20;99.90;;;;;;5014502;28;20233;-68
2023/12/26 09:55:06;;;;;;;2.03;1.53;;;9.30;99.90;;;;;;4993273;28;20289;-68
2023/12/26 09:57:33;;;;;;;3.80;2.00;;;9.30;99.90;;;;;;5008438;28;20674;-68
2023/12/26 10:00:02;;;;;;;2.97;1.73;;;9.40;99.90;;;;;;5004314;28;20211;-68
2023/12/26 10:02:39;;;;;;;3.87;2.00;;;9.40;99.90;;;;;;5010073;28;20199;-68
2023/12/26 10:05:06;;;;;;;4.70;1.90;;;9.50;99.90;;;;;;5010482;28;20245;-68
2023/12/26 10:07:34;;;;;;;3.57;1.93;;;9.70;99.90;;;;;;4990447;28;20204;-68
2023/12/26 10:10:02;;;;;;;2.43;1.57;;;9.90;99.90;;;;;;5011055;28;20202;-68
2023/12/26 10:12:31;;;;;;;1.70;1.43;;;9.90;99.90;;;;;;5010578;28;20690;-68
2023/12/26 10:14:59;;;;;;;3.33;1.60;;;9.90;99.90;;;;;;4988701;28;20674;-68
2023/12/26 10:17:26;;;;;;;3.57;1.53;;;9.90;99.90;;;;;;5010973;28;20205;-68
2023/12/26 10:19:57;;;;;;;2.17;1.57;;;10.00;99.90;;;;;;5009833;28;20276;-68
2023/12/26 10:22:24;;;;;;;2.77;1.67;;;10.30;99.90;;;;;;4992927;28;20203;-68
2023/12/26 10:24:51;;;;;;;3.30;1.70;;;10.90;99.90;;;;;;5007962;28;20232;-68
2023/12/26 10:27:20;;;;;;;3.80;2.20;;;11.70;99.90;;;;;;5010678;28;20623;-68
2023/12/26 10:29:51;;;;;;;5.10;1.53;;;12.40;99.90;;;;;;5009936;28;20203;-68
2023/12/26 10:32:18;;;;;;;5.03;1.77;;;12.80;99.90;;;;;;5010016;28;20236;-68
2023/12/26 10:34:45;;;;;;;3.57;2.00;;;13.10;99.90;;;;;;5009195;28;20215;-68
2023/12/26 10:37:13;;;;;;;3.73;1.80;;;13.20;99.90;;;;;;5009631;28;20253;-68
2023/12/26 10:39:42;;;;;;;4.40;1.60;;;13.10;99.90;;;;;;5010983;28;20194;-68
2023/12/26 10:42:12;;;;;;;5.20;1.30;;;12.90;99.90;;;;;;5010119;28;20285;-67
2023/12/26 10:44:41;;;;;;;2.37;1.50;;;12.60;99.90;;;;;;5009569;28;20210;-68
2023/12/26 10:47:09;;;;;;;3.57;1.70;;;12.20;99.90;;;;;;5010601;28;20275;-68
2023/12/26 10:49:40;;;;;;;2.60;1.40;;;11.90;99.90;;;;;;5010082;28;20193;-68
2023/12/26 10:52:10;;;;;;;3.67;1.60;;;11.70;99.90;;;;;;5010978;28;20631;-68
2023/12/26 10:54:39;;;;;;;2.20;1.13;;;11.50;99.90;;;;;;4997802;28;20196;-68
2023/12/26 10:57:08;;;;;;;1.37;1.13;;;11.30;99.90;;;;;;5002370;28;20250;-68
2023/12/26 10:59:36;;;;;;;2.90;1.23;;;11.10;99.90;;;;;;5008073;28;20200;-68
2023/12/26 11:02:04;;;;;;;3.57;1.57;;;11.00;99.90;;;;;;5007199;28;20236;-68
2023/12/26 11:04:30;;;;;;;2.83;1.37;;;10.90;99.90;;;;;;5012838;28;20249;-68
2023/12/26 11:06:57;;;;;;;3.53;1.50;;;10.80;99.90;;;;;;5013906;28;20266;-68
2023/12/26 11:09:23;;;;;;;4.30;1.67;;;10.70;99.90;;;;;;5018938;28;20199;-68
2023/12/26 11:11:50;;;;;;;5.67;1.60;;;10.70;99.90;;;;;;5016151;28;20208;-68
2023/12/26 11:14:18;;;;;;;4.20;1.33;;;10.60;99.90;;;;;;5018782;28;20189;-68
2023/12/26 11:16:44;;;;;;;2.83;1.13;;;10.60;99.90;;;;;;5017401;28;20194;-68
2023/12/26 11:19:11;;;;;;;3.87;1.00;;;10.60;99.90;;;;;;5018833;28;20221;-68
2023/12/26 11:21:39;;;;;;;2.83;1.20;;;10.50;99.90;;;;;;5017274;28;20214;-68
2023/12/26 11:24:07;;;;;;;3.53;1.17;;;10.50;99.90;;;;;;5018046;28;20741;-68
2023/12/26 11:26:33;;;;;;;2.00;1.40;;;10.50;99.90;;;;;;5016069;28;20220;-68
2023/12/26 11:29:06;;;;;;;2.80;1.20;;;10.50;99.90;;;;;;5015639;28;20198;-68
2023/12/26 11:31:36;;;;;;;4.23;1.53;;;10.50;99.90;;;;;;4998531;28;20244;-68
2023/12/26 11:34:03;;;;;;;2.73;1.17;;;10.40;99.90;;;;;;5009671;28;20194;-68
2023/12/26 11:36:32;;;;;;;3.37;1.50;;;10.40;99.90;;;;;;5015643;28;20189;-68
2023/12/26 11:38:58;;;;;;;4.27;1.30;;;10.40;99.90;;;;;;5014657;28;20231;-68
2023/12/26 11:41:24;;;;;;;4.23;1.77;;;10.40;99.90;;;;;;4992639;28;20197;-68
2023/12/26 11:43:51;;;;;;;2.40;1.30;;;10.40;99.90;;;;;;5017871;28;20663;-68
2023/12/26 11:46:17;;;;;;;2.90;1.50;;;10.40;99.90;;;;;;5010046;28;20288;-68
2023/12/26 11:48:43;;;;;;;2.60;1.30;;;10.50;99.90;;;;;;5000053;28;20608;-68
2023/12/26 11:51:10;;;;;;;2.13;1.03;;;10.50;99.90;;;;;;5007890;28;20202;-68
2023/12/26 11:53:37;;;;;;;3.37;1.23;;;10.40;99.90;;;;;;5012627;28;20671;-67
2023/12/26 11:56:04;;;;;;;1.83;1.50;;;10.40;99.90;;;;;;4996492;28;20722;-68
2023/12/26 11:58:31;;;;;;;2.30;1.43;;;10.40;99.90;;;;;;5019285;28;20190;-67
2023/12/26 12:00:57;;;;;;;4.47;1.80;;;10.40;99.90;;;;;;5011700;28;20626;-67
2023/12/26 12:03:24;;;;;;;2.37;1.50;;;10.30;99.90;;;;;;5005908;28;20300;-68
2023/12/26 12:06:14;;;;;;;3.60;1.37;;;10.30;99.90;;;;;;5005403;28;20270;-67
2023/12/26 12:11:50;;;;;;;1.53;1.00;;;10.30;99.90;;;;;;5095081;27;20564;-68
2023/12/26 12:14:16;;;;;;;4.27;1.40;;;10.30;99.90;;;;;;5082873;28;20200;-67
2023/12/26 12:16:42;;;;;;;2.13;0.90;;;10.30;99.90;;;;;;5085413;28;20269;-67
2023/12/26 12:19:15;;;;;;;2.73;1.50;;;10.30;99.90;;;;;;5085528;28;20218;-68
2023/12/26 12:21:41;;;;;;;2.43;1.17;;;10.20;99.90;;;;;;5085533;28;20238;-68
2023/12/26 12:24:07;;;;;;;2.53;1.30;;;10.20;99.90;;;;;;5085416;28;20204;-68
2023/12/26 12:27:02;;;;;;;3.27;1.57;;;10.20;99.90;;;;;;5083604;28;20207;-68
2023/12/26 12:30:01;;;;;;;4.20;1.60;;;10.20;99.90;;;;;;5078658;28;20285;-67
2023/12/26 12:32:32;;;;;;;3.10;1.20;;;10.10;99.90;;;;;;5083224;28;20191;-68
2023/12/26 12:35:12;;;;;;;5.00;1.63;;;10.10;99.90;;;;;;5084220;28;20220;-67
2023/12/26 12:37:39;;;;;;;2.90;1.47;;;10.00;99.90;;;;;;5085543;28;20545;-67
2023/12/26 12:40:05;;;;;;;2.43;1.33;;;10.00;99.90;;;;;;5085116;28;20645;-68
2023/12/26 12:42:34;;;;;;;4.13;1.43;;;10.00;99.90;;;;;;5084252;28;20196;-67
2023/12/26 12:45:02;;;;;;;4.53;1.63;;;10.00;99.90;;;;;;5083625;28;20530;-68
2023/12/26 12:47:28;;;;;;;2.47;1.50;;;10.00;99.90;;;;;;5085404;28;20253;-68
2023/12/26 12:49:54;;;;;;;2.53;1.30;;;9.90;99.90;;;;;;5084168;28;20249;-67
2023/12/26 12:52:21;;;;;;;3.93;1.40;;;9.90;99.90;;;;;;5084733;28;20655;-67
2023/12/26 12:54:47;;;;;;;2.43;1.10;;;9.90;99.90;;;;;;5075251;28;20194;-67
2023/12/26 12:57:13;;;;;;;2.60;1.30;;;9.90;99.90;;;;;;5084485;28;20195;-68
2023/12/26 12:59:42;;;;;;;3.47;1.00;;;9.90;99.90;;;;;;5084502;28;20194;-67